D/T METAR WX W/SPE G/SPE TEMP DEWP FEEL
31/01/23 13:20 EGMC 311320Z 27016KT 9999 FEW026 BKN038 11/05 Q1022 18.4mph 11°C 5°C 10.3°C
31/01/23 12:50 EGMC 311250Z 26011KT 9999 BKN025 11/06 Q1022 12.7mph 11°C 6°C 10.6°C
30/01/23 21:50 EGMC 302150Z 24004KT CAVOK 04/00 Q1027 4.6mph 4°C 0°C 1.8°C
30/01/23 12:50 EGMC 301250Z 31013KT 280V340 CAVOK 09/01 Q1024 15.0mph 9°C 1°C 7.1°C
30/01/23 11:50 EGMC 301150Z 30011KT 260V330 CAVOK 08/01 Q1024 12.7mph 8°C 1°C 6.1°C
30/01/23 10:50 EGMC 301050Z 30012G23KT 260V320 CAVOK 08/01 Q1024 13.8mph 26.5mph 8°C 1°C 6.1°C
30/01/23 10:20 EGMC 301020Z 30010G20KT CAVOK 08/00 Q1024 11.5mph 23.0mph 8°C 0°C 5.8°C
30/01/23 09:50 EGMC 300950Z 29011KT 250V320 CAVOK 07/00 Q1023 12.7mph 7°C 0°C 4.8°C
30/01/23 08:20 EGMC 300820Z 29009KT 260V320 CAVOK 06/M00 Q1023 10.4mph 6°C 0°C 3.8°C
30/01/23 06:50 EGMC 300650Z 30008KT CAVOK 06/01 Q1021 9.2mph 6°C 1°C 4.1°C
09/01/23 06:20 EGMC 090620Z 25010KT CAVOK 05/04 Q0994 11.5mph 5°C 4°C 4.0°C
09/01/23 05:50 EGMC 090550Z 25010KT CAVOK 05/04 Q0994 11.5mph 5°C 4°C 4.0°C
09/01/23 05:20 EGMC 090520Z 26010KT CAVOK 06/04 Q0993 11.5mph 6°C 4°C 5.0°C
09/01/23 04:50 EGMC 090450Z 26014KT CAVOK 06/04 Q0993 16.1mph 6°C 4°C 5.0°C
09/01/23 03:50 EGMC 090350Z 26015KT CAVOK 06/05 Q0992 17.3mph 6°C 5°C 5.3°C
09/01/23 02:50 EGMC 090250Z 26008KT 9999 SCT013 07/04 Q0991 9.2mph 7°C 4°C 6.0°C
09/01/23 01:50 EGMC 090150Z 23004KT 9999 FEW014 SCT033 07/04 Q0989 4.6mph 7°C 4°C 6.0°C
09/01/23 00:50 EGMC 090050Z 23004KT 8000 -RA FEW009 BKN017 07/04 Q0989 -RA 4.6mph 7°C 4°C 6.0°C
08/01/23 23:50 EGMC 082350Z 19007KT 9999 FEW018 07/04 Q0989 8.1mph 7°C 4°C 6.0°C
08/01/23 22:50 EGMC 082250Z 20011KT CAVOK 07/04 Q0989 12.7mph 7°C 4°C 6.0°C
08/01/23 22:20 EGMC 082220Z 20010KT CAVOK 06/03 Q0989 11.5mph 6°C 3°C 4.7°C
08/01/23 21:50 EGMC 082150Z 20010KT CAVOK 06/04 Q0990 11.5mph 6°C 4°C 5.0°C
08/01/23 20:20 EGMC 082020Z 22010KT CAVOK 05/03 Q0990 11.5mph 5°C 3°C 3.7°C
08/01/23 19:20 EGMC 081920Z 24011KT 9999 FEW024 06/04 Q0990 12.7mph 6°C 4°C 5.0°C
08/01/23 18:50 EGMC 081850Z 26015KT 9999 SCT024 07/03 Q0990 17.3mph 7°C 3°C 5.7°C
08/01/23 18:20 EGMC 081820Z 23016KT 9999 FEW011 BKN020 07/05 Q0990 18.4mph 7°C 5°C 6.3°C
08/01/23 17:50 EGMC 081750Z 21015KT 9999 BKN020 07/05 Q0989 17.3mph 7°C 5°C 6.3°C
08/01/23 17:20 EGMC 081720Z 20011KT 9999 BKN021 07/05 Q0989 12.7mph 7°C 5°C 6.3°C
08/01/23 16:50 EGMC 081650Z 20013KT 9999 SCT030 06/05 Q0989 15.0mph 6°C 5°C 5.3°C
08/01/23 16:20 EGMC 081620Z 22013KT 9999 FEW027 SCT036 06/05 Q0990 15.0mph 6°C 5°C 5.3°C
08/01/23 15:50 EGMC 081550Z 22010KT 9999 -RA SCT018 06/05 Q0990 RESHRA -RA 11.5mph 6°C 5°C 5.3°C
08/01/23 15:20 EGMC 081520Z 19015KT 9999 -RA BKN023 10/06 Q0990 -RA 17.3mph 10°C 6°C 9.6°C
08/01/23 13:50 EGMC 081350Z 19018KT 9999 VCSH FEW018 SCT022 10/05 Q0991 VCSH 20.7mph 10°C 5°C 9.3°C
08/01/23 13:20 EGMC 081320Z 19016KT 9999 VCSH FEW014 BKN024 10/06 Q0991 VCSH 18.4mph 10°C 6°C 9.6°C
08/01/23 12:50 EGMC 081250Z 19014KT 9999 -SHRA BKN025 10/06 Q0992 -SHRA 16.1mph 10°C 6°C 9.6°C
08/01/23 12:20 EGMC 081220Z 19015KT 9999 SCT022 10/06 Q0993 17.3mph 10°C 6°C 9.6°C
08/01/23 11:50 EGMC 081150Z 19015KT 9999 SCT022 10/06 Q0993 17.3mph 10°C 6°C 9.6°C
08/01/23 11:20 EGMC 081120Z 20016KT 9999 VCSH SCT020 09/06 Q0994 VCSH 18.4mph 9°C 6°C 8.6°C
08/01/23 10:50 EGMC 081050Z 19012KT 9999 VCSH FEW019 BKN034 09/06 Q0994 VCSH 13.8mph 9°C 6°C 8.6°C
08/01/23 10:20 EGMC 081020Z 19011KT 9999 VCSH BKN032 09/07 Q0994 VCSH 12.7mph 9°C 7°C 9.0°C
08/01/23 09:50 EGMC 080950Z 18010KT 9999 FEW040 08/06 Q0995 11.5mph 8°C 6°C 7.6°C
08/01/23 09:20 EGMC 080920Z 19010KT 9999 FEW022 08/06 Q0995 11.5mph 8°C 6°C 7.6°C
08/01/23 08:20 EGMC 080820Z 19011KT 9999 -SHRA FEW018 SCT029 07/05 Q0995 -SHRA 12.7mph 7°C 5°C 6.3°C
08/01/23 07:50 EGMC 080750Z 20013KT 9999 FEW026 07/05 Q0996 15.0mph 7°C 5°C 6.3°C
08/01/23 07:20 EGMC 080720Z 20012KT 9999 FEW032 07/05 Q0996 13.8mph 7°C 5°C 6.3°C
08/01/23 06:50 EGMC 080650Z 20015KT 9999 -RA FEW019 SCT028 08/05 Q0996 -RA 17.3mph 8°C 5°C 7.3°C
08/01/23 06:20 EGMC 080620Z 20014KT 8000 -RA SCT019 BKN023 09/05 Q0996 -RA 16.1mph 9°C 5°C 8.3°C
08/01/23 05:50 EGMC 080550Z 20015KT 9999 SCT027 BKN034 09/05 Q0996 17.3mph 9°C 5°C 8.3°C
08/01/23 05:20 EGMC 080520Z 19014KT 9999 BKN022 OVC041 09/05 Q0996 16.1mph 9°C 5°C 8.3°C
08/01/23 04:50 EGMC 080450Z 21014KT 9999 FEW018 SCT023 09/06 Q0996 16.1mph 9°C 6°C 8.6°C
08/01/23 03:50 EGMC 080350Z 21014KT 9999 FEW039 09/05 Q0997 16.1mph 9°C 5°C 8.3°C
08/01/23 02:50 EGMC 080250Z 20014KT 9999 FEW030 09/05 Q0997 16.1mph 9°C 5°C 8.3°C
08/01/23 01:50 EGMC 080150Z 21014KT 9999 FEW027 BKN032 09/05 Q0997 16.1mph 9°C 5°C 8.3°C
08/01/23 00:20 EGMC 080020Z 20017KT CAVOK 09/05 Q0998 19.6mph 9°C 5°C 8.3°C
07/01/23 23:20 EGMC 072320Z 21015KT CAVOK 08/04 Q0998 17.3mph 8°C 4°C 7.0°C
07/01/23 22:20 EGMC 072220Z 21010KT CAVOK 08/04 Q0998 11.5mph 8°C 4°C 7.0°C
07/01/23 21:50 EGMC 072150Z 21012KT CAVOK 07/04 Q0998 13.8mph 7°C 4°C 6.0°C
07/01/23 21:20 EGMC 072120Z 20011KT CAVOK 07/04 Q0998 12.7mph 7°C 4°C 6.0°C
07/01/23 20:50 EGMC 072050Z 21014KT CAVOK 08/04 Q0998 16.1mph 8°C 4°C 7.0°C
07/01/23 20:20 EGMC 072020Z 21014KT CAVOK 08/04 Q0998 16.1mph 8°C 4°C 7.0°C
07/01/23 19:50 EGMC 071950Z 22017KT CAVOK 08/04 Q0998 19.6mph 8°C 4°C 7.0°C
07/01/23 19:20 EGMC 071920Z 22017KT CAVOK 08/04 Q0997 19.6mph 8°C 4°C 7.0°C
07/01/23 17:50 EGMC 071750Z 22022G32KT 9000 -SHRA FEW009 BKN023 09/08 Q0997 -SHRA 25.3mph 36.8mph 9°C 8°C 9.4°C
07/01/23 17:20 EGMC 071720Z 18016KT 9999 SCT021 BKN047 11/08 Q0996 18.4mph 11°C 8°C 11.4°C
07/01/23 16:50 EGMC 071650Z 19014G24KT 9999 SCT021 12/08 Q0996 16.1mph 27.6mph 12°C 8°C 12.4°C
07/01/23 16:20 EGMC 071620Z 20017G27KT 9999 BKN020 12/08 Q0997 19.6mph 31.1mph 12°C 8°C 12.4°C
07/01/23 15:50 EGMC 071550Z 20017KT 9999 BKN022 12/08 Q0997 19.6mph 12°C 8°C 12.4°C
07/01/23 15:20 EGMC 071520Z 20017KT 9999 SCT021 12/08 Q0997 19.6mph 12°C 8°C 12.4°C
07/01/23 14:50 EGMC 071450Z 20017KT 9999 BKN017 11/08 Q0997 19.6mph 11°C 8°C 11.4°C
07/01/23 14:20 EGMC 071420Z 20018KT 9999 BKN017 11/08 Q0998 20.7mph 11°C 8°C 11.4°C
07/01/23 13:50 EGMC 071350Z 20017KT 9999 BKN017 11/07 Q0998 19.6mph 11°C 7°C 11.0°C
07/01/23 12:50 EGMC 071250Z 19015KT 9999 BKN016 11/08 Q0999 17.3mph 11°C 8°C 11.4°C
07/01/23 12:20 EGMC 071220Z 19017G27KT 9000 -RA BKN015 10/08 Q0999 -RA 19.6mph 31.1mph 10°C 8°C 10.4°C
07/01/23 11:50 EGMC 071150Z 19019KT 9999 BKN016 10/08 Q1000 21.9mph 10°C 8°C 10.4°C
07/01/23 11:20 EGMC 071120Z 18020KT 9999 -RA BKN016 10/07 Q1000 -RA 23.0mph 10°C 7°C 10.0°C
07/01/23 10:50 EGMC 071050Z 18019KT 9999 -RA FEW015 BKN018 10/07 Q1001 -RA 21.9mph 10°C 7°C 10.0°C
07/01/23 10:20 EGMC 071020Z 18018KT 9999 -RA FEW016 BKN019 10/07 Q1001 -RA 20.7mph 10°C 7°C 10.0°C
07/01/23 09:50 EGMC 070950Z 17020KT 9999 SCT022 BKN026 10/07 Q1001 23.0mph 10°C 7°C 10.0°C
07/01/23 09:20 EGMC 070920Z 17019KT 9999 FEW028 SCT035 11/06 Q1002 21.9mph 11°C 6°C 10.6°C
07/01/23 08:50 EGMC 070850Z 17019KT 9999 FEW027 SCT040 11/06 Q1002 21.9mph 11°C 6°C 10.6°C
07/01/23 08:20 EGMC 070820Z 17020KT 9999 FEW028 11/05 Q1003 23.0mph 11°C 5°C 10.3°C
07/01/23 07:50 EGMC 070750Z 17019G31KT 9999 FEW028 11/05 Q1003 21.9mph 35.7mph 11°C 5°C 10.3°C
07/01/23 07:20 EGMC 070720Z 17015KT 9999 FEW026 11/06 Q1004 17.3mph 11°C 6°C 10.6°C
07/01/23 06:50 EGMC 070650Z 18018KT 9999 FEW026 11/06 Q1005 20.7mph 11°C 6°C 10.6°C
07/01/23 06:20 EGMC 070620Z 18016KT 9999 FEW023 11/06 Q1005 18.4mph 11°C 6°C 10.6°C
07/01/23 05:50 EGMC 070550Z 18017KT 9999 FEW023 BKN048 11/07 Q1006 19.6mph 11°C 7°C 11.0°C
07/01/23 05:20 EGMC 070520Z 19018KT 9999 FEW015 BKN048 11/07 Q1006 20.7mph 11°C 7°C 11.0°C
07/01/23 04:50 EGMC 070450Z 19019KT 9999 FEW015 BKN048 11/07 Q1006 21.9mph 11°C 7°C 11.0°C
07/01/23 03:50 EGMC 070350Z 19017KT 9999 FEW015 BKN018 12/08 Q1007 19.6mph 12°C 8°C 12.4°C
07/01/23 01:50 EGMC 070150Z 19016KT 9999 FEW022 SCT049 12/09 Q1009 18.4mph 12°C 9°C 12.8°C
07/01/23 00:50 EGMC 070050Z 20014KT 9999 FEW020 SCT047 12/09 Q1010 16.1mph 12°C 9°C 12.8°C
06/01/23 23:50 EGMC 062350Z 21017KT 9999 SCT017 12/09 Q1010 19.6mph 12°C 9°C 12.8°C
06/01/23 23:20 EGMC 062320Z 20014KT 9999 FEW015 BKN016 12/09 Q1011 16.1mph 12°C 9°C 12.8°C
06/01/23 22:50 EGMC 062250Z 21015KT 9999 FEW015 BKN016 12/10 Q1011 17.3mph 12°C 10°C 13.3°C
06/01/23 21:50 EGMC 062150Z 21014KT 9999 FEW012 SCT014 12/10 Q1012 16.1mph 12°C 10°C 13.3°C
06/01/23 21:20 EGMC 062120Z 21016KT 9999 BKN012 12/10 Q1012 18.4mph 12°C 10°C 13.3°C